Overview Statistics Trail Chart Weather Telemetry Raw packets
 

This is the latest recevied weather packets stored in our database for station/object KE8WMS. If no packets are shown the sender has not sent any weather packets the latest 10 day(s).

<< 72 73 74 75 76 77 78 >>
Time Temp. Humidity Pressure Rain* Wind** Luminosity Snow
1777327156 22.78° C 43% 1011.3 hPa 0 mm - 145 W/m² -
1777326854 22.22° C 44% 1011.3 hPa 0 mm - 145 W/m² -
1777326550 22.78° C 42% 1011.3 hPa 0 mm - 145 W/m² -
1777326247 22.78° C 42% 1011.5 hPa 0 mm - 154 W/m² -
1777325945 22.78° C 39% 1011.3 hPa 0 mm - 178 W/m² -
1777325643 23.33° C 39% 1011.5 hPa 0 mm - 218 W/m² -
1777325341 23.33° C 39% 1011.4 hPa 0 mm - 255 W/m² -
1777325039 23.33° C 43% 1011.7 hPa 0 mm - 260 W/m² -
1777324735 22.78° C 39% 1011.6 hPa 0 mm - 238 W/m² -
1777324433 22.78° C 42% 1011.9 hPa 0 mm - 222 W/m² -
1777324130 22.78° C 41% 1011.8 hPa 0 mm - 221 W/m² -
1777323828 22.78° C 41% 1012 hPa 0 mm - 218 W/m² -
1777323524 22.78° C 44% 1012.1 hPa 0 mm - 204 W/m² -
1777323222 22.78° C 40% 1011.7 hPa 0 mm - 202 W/m² -
1777322919 22.78° C 45% 1011.8 hPa 0 mm - 210 W/m² -
1777322617 22.78° C 46% 1012 hPa 0 mm - 242 W/m² -
1777322314 22.78° C 38% 1011.8 hPa 0 mm - 262 W/m² -
1777322011 22.78° C 42% 1012.1 hPa 0 mm - 278 W/m² -
1777321708 22.78° C 44% 1012.3 hPa 0 mm - 288 W/m² -
1777321404 22.78° C 39% 1012.1 hPa 0 mm - 311 W/m² -
1777321102 22.78° C 44% 1012.2 hPa 0 mm - 329 W/m² -
1777320799 22.78° C 42% 1012.2 hPa 0 mm - 321 W/m² -
1777320496 22.78° C 42% 1012.1 hPa 0 mm - 328 W/m² -
1777320194 22.78° C 43% 1012.4 hPa 0 mm - 323 W/m² -
1777319890 22.78° C 40% 1012.2 hPa 0 mm - 344 W/m² -

* Rain latest hour (hover to see other rain measurements)
** Current wind speed in m/s (hover to see current wind gust speed)